sensor_id;sensor_type;location;lat;lon;timestamp;noise_LAeq;noise_LA_min;noise_LA_max;noise_LA01;noise_LA95
71016;Laerm;60940;52.046;5.340;2023-02-11T00:00:08;31.62;30.18;33.21;;
71016;Laerm;60940;52.046;5.340;2023-02-11T00:00:19;32.28;30.28;33.83;;
71016;Laerm;60940;52.046;5.340;2023-02-11T00:00:29;31.99;30.62;33.36;;
71016;Laerm;60940;52.046;5.340;2023-02-11T00:00:40;31.65;30.00;32.86;;
71016;Laerm;60940;52.046;5.340;2023-02-11T00:00:50;31.62;30.09;33.07;;
71016;Laerm;60940;52.046;5.340;2023-02-11T00:01:05;32.52;30.29;34.63;;
71016;Laerm;60940;52.046;5.340;2023-02-11T00:01:20;35.30;32.52;38.76;;
71016;Laerm;60940;52.046;5.340;2023-02-11T00:01:32;33.20;30.90;36.56;;
71016;Laerm;60940;52.046;5.340;2023-02-11T00:01:42;32.50;30.37;35.95;;
71016;Laerm;60940;52.046;5.340;2023-02-11T00:01:52;33.06;31.12;34.82;;
71016;Laerm;60940;52.046;5.340;2023-02-11T00:02:03;31.99;30.39;33.73;;
71016;Laerm;60940;52.046;5.340;2023-02-11T00:02:14;31.52;30.29;32.71;;
71016;Laerm;60940;52.046;5.340;2023-02-11T00:02:24;31.43;30.21;33.16;;
71016;Laerm;60940;52.046;5.340;2023-02-11T00:02:38;31.52;30.10;32.93;;
71016;Laerm;60940;52.046;5.340;2023-02-11T00:02:48;31.54;29.99;32.86;;
71016;Laerm;60940;52.046;5.340;2023-02-11T00:02:58;31.61;29.85;33.25;;
71016;Laerm;60940;52.046;5.340;2023-02-11T00:03:09;32.88;31.52;34.49;;
71016;Laerm;60940;52.046;5.340;2023-02-11T00:03:19;32.24;30.80;33.63;;
71016;Laerm;60940;52.046;5.340;2023-02-11T00:03:29;32.05;30.57;35.20;;
71016;Laerm;60940;52.046;5.340;2023-02-11T00:03:39;31.53;30.12;32.76;;
71016;Laerm;60940;52.046;5.340;2023-02-11T00:03:50;31.59;30.40;35.60;;
71016;Laerm;60940;52.046;5.340;2023-02-11T00:04:00;31.59;30.20;33.18;;
71016;Laerm;60940;52.046;5.340;2023-02-11T00:04:10;31.63;29.85;32.96;;
71016;Laerm;60940;52.046;5.340;2023-02-11T00:04:21;35.48;31.15;38.45;;
71016;Laerm;60940;52.046;5.340;2023-02-11T00:04:31;34.87;32.14;37.57;;
71016;Laerm;60940;52.046;5.340;2023-02-11T00:04:41;32.34;29.99;35.60;;
71016;Laerm;60940;52.046;5.340;2023-02-11T00:04:51;32.94;31.00;35.36;;
71016;Laerm;60940;52.046;5.340;2023-02-11T00:05:01;32.24;30.99;33.60;;
71016;Laerm;60940;52.046;5.340;2023-02-11T00:05:12;32.38;30.43;35.02;;
71016;Laerm;60940;52.046;5.340;2023-02-11T00:05:22;31.90;30.43;33.96;;
71016;Laerm;60940;52.046;5.340;2023-02-11T00:05:32;31.82;30.49;33.36;;
71016;Laerm;60940;52.046;5.340;2023-02-11T00:05:42;32.34;31.00;33.76;;
71016;Laerm;60940;52.046;5.340;2023-02-11T00:05:56;32.31;30.91;33.63;;
71016;Laerm;60940;52.046;5.340;2023-02-11T00:06:07;35.63;31.24;39.89;;
71016;Laerm;60940;52.046;5.340;2023-02-11T00:06:20;35.42;32.37;38.96;;
71016;Laerm;60940;52.046;5.340;2023-02-11T00:06:31;32.84;30.82;34.62;;
71016;Laerm;60940;52.046;5.340;2023-02-11T00:06:42;32.27;31.02;33.76;;
71016;Laerm;60940;52.046;5.340;2023-02-11T00:06:52;32.30;30.83;37.55;;
71016;Laerm;60940;52.046;5.340;2023-02-11T00:07:02;34.38;30.10;51.65;;
71016;Laerm;60940;52.046;5.340;2023-02-11T00:07:13;31.57;30.17;35.93;;
71016;Laerm;60940;52.046;5.340;2023-02-11T00:07:23;31.58;30.19;33.91;;
71016;Laerm;60940;52.046;5.340;2023-02-11T00:07:33;32.78;29.97;46.74;;
71016;Laerm;60940;52.046;5.340;2023-02-11T00:07:44;32.17;30.35;34.39;;
71016;Laerm;60940;52.046;5.340;2023-02-11T00:07:54;34.83;31.03;42.67;;
71016;Laerm;60940;52.046;5.340;2023-02-11T00:08:04;32.63;31.02;35.17;;
71016;Laerm;60940;52.046;5.340;2023-02-11T00:08:14;31.82;30.45;33.17;;
71016;Laerm;60940;52.046;5.340;2023-02-11T00:08:26;31.75;30.20;32.97;;
71016;Laerm;60940;52.046;5.340;2023-02-11T00:08:36;31.49;30.11;32.69;;
71016;Laerm;60940;52.046;5.340;2023-02-11T00:08:46;31.79;30.39;33.16;;
71016;Laerm;60940;52.046;5.340;2023-02-11T00:08:57;32.03;30.30;33.20;;
71016;Laerm;60940;52.046;5.340;2023-02-11T00:09:09;32.12;30.66;33.77;;
71016;Laerm;60940;52.046;5.340;2023-02-11T00:09:19;32.53;30.63;34.48;;
71016;Laerm;60940;52.046;5.340;2023-02-11T00:09:29;32.07;30.57;37.25;;
71016;Laerm;60940;52.046;5.340;2023-02-11T00:09:39;32.52;30.89;35.57;;
71016;Laerm;60940;52.046;5.340;2023-02-11T00:09:49;32.73;31.09;33.95;;
71016;Laerm;60940;52.046;5.340;2023-02-11T00:10:00;32.65;31.47;34.44;;
71016;Laerm;60940;52.046;5.340;2023-02-11T00:10:11;32.57;30.71;34.11;;
71016;Laerm;60940;52.046;5.340;2023-02-11T00:10:22;31.94;30.36;33.46;;
71016;Laerm;60940;52.046;5.340;2023-02-11T00:10:32;31.80;30.33;32.92;;
71016;Laerm;60940;52.046;5.340;2023-02-11T00:10:42;31.58;30.04;32.93;;
71016;Laerm;60940;52.046;5.340;2023-02-11T00:10:55;32.04;30.54;34.01;;
71016;Laerm;60940;52.046;5.340;2023-02-11T00:11:06;32.33;30.53;34.97;;
71016;Laerm;60940;52.046;5.340;2023-02-11T00:11:17;33.88;31.69;35.50;;
71016;Laerm;60940;52.046;5.340;2023-02-11T00:11:28;33.76;32.17;35.39;;
71016;Laerm;60940;52.046;5.340;2023-02-11T00:11:39;33.17;31.24;38.24;;
71016;Laerm;60940;52.046;5.340;2023-02-11T00:11:49;32.97;31.29;34.56;;
71016;Laerm;60940;52.046;5.340;2023-02-11T00:11:59;31.69;30.18;33.66;;
71016;Laerm;60940;52.046;5.340;2023-02-11T00:12:09;31.90;30.29;34.30;;
71016;Laerm;60940;52.046;5.340;2023-02-11T00:12:20;32.82;30.87;35.51;;
71016;Laerm;60940;52.046;5.340;2023-02-11T00:12:30;32.33;30.84;36.46;;
71016;Laerm;60940;52.046;5.340;2023-02-11T00:12:40;32.10;30.44;33.53;;
71016;Laerm;60940;52.046;5.340;2023-02-11T00:12:52;31.92;30.15;33.41;;
71016;Laerm;60940;52.046;5.340;2023-02-11T00:13:02;31.66;30.19;34.37;;
71016;Laerm;60940;52.046;5.340;2023-02-11T00:13:12;31.54;30.11;33.89;;
71016;Laerm;60940;52.046;5.340;2023-02-11T00:13:23;31.50;29.93;32.44;;
71016;Laerm;60940;52.046;5.340;2023-02-11T00:13:33;31.46;29.88;32.89;;
71016;Laerm;60940;52.046;5.340;2023-02-11T00:13:44;39.90;30.07;55.41;;
71016;Laerm;60940;52.046;5.340;2023-02-11T00:13:55;46.63;30.17;60.93;;
71016;Laerm;60940;52.046;5.340;2023-02-11T00:14:06;33.25;30.58;47.42;;
71016;Laerm;60940;52.046;5.340;2023-02-11T00:14:19;32.12;30.58;33.50;;
71016;Laerm;60940;52.046;5.340;2023-02-11T00:14:29;33.42;30.69;41.89;;
71016;Laerm;60940;52.046;5.340;2023-02-11T00:14:40;35.58;32.15;49.75;;
71016;Laerm;60940;52.046;5.340;2023-02-11T00:14:50;35.79;33.25;42.55;;
71016;Laerm;60940;52.046;5.340;2023-02-11T00:15:00;36.36;33.92;38.50;;
71016;Laerm;60940;52.046;5.340;2023-02-11T00:15:11;33.63;31.71;35.74;;
71016;Laerm;60940;52.046;5.340;2023-02-11T00:15:21;31.99;30.45;33.59;;
71016;Laerm;60940;52.046;5.340;2023-02-11T00:15:31;31.93;30.19;33.05;;
71016;Laerm;60940;52.046;5.340;2023-02-11T00:15:41;32.19;30.62;33.53;;
71016;Laerm;60940;52.046;5.340;2023-02-11T00:15:52;33.70;31.34;36.03;;
71016;Laerm;60940;52.046;5.340;2023-02-11T00:16:06;33.27;31.42;36.50;;
71016;Laerm;60940;52.046;5.340;2023-02-11T00:16:18;35.93;33.33;38.13;;
71016;Laerm;60940;52.046;5.340;2023-02-11T00:16:28;34.97;31.76;37.87;;
71016;Laerm;60940;52.046;5.340;2023-02-11T00:16:39;33.24;31.31;37.32;;
71016;Laerm;60940;52.046;5.340;2023-02-11T00:16:49;33.26;31.29;35.38;;
71016;Laerm;60940;52.046;5.340;2023-02-11T00:17:00;33.75;31.61;35.94;;
71016;Laerm;60940;52.046;5.340;2023-02-11T00:17:10;34.64;32.24;37.95;;
71016;Laerm;60940;52.046;5.340;2023-02-11T00:17:20;32.84;31.11;34.56;;
71016;Laerm;60940;52.046;5.340;2023-02-11T00:17:30;32.53;30.91;33.92;;
71016;Laerm;60940;52.046;5.340;2023-02-11T00:17:41;32.27;30.56;33.79;;
71016;Laerm;60940;52.046;5.340;2023-02-11T00:17:51;32.61;30.95;35.09;;
71016;Laerm;60940;52.046;5.340;2023-02-11T00:18:01;32.46;30.92;33.99;;
71016;Laerm;60940;52.046;5.340;2023-02-11T00:18:11;32.90;31.15;34.60;;
71016;Laerm;60940;52.046;5.340;2023-02-11T00:18:21;33.60;31.11;37.97;;
71016;Laerm;60940;52.046;5.340;2023-02-11T00:18:32;36.44;32.29;50.01;;
71016;Laerm;60940;52.046;5.340;2023-02-11T00:18:42;36.29;31.43;50.99;;
71016;Laerm;60940;52.046;5.340;2023-02-11T00:18:52;33.55;31.54;42.85;;
71016;Laerm;60940;52.046;5.340;2023-02-11T00:19:03;32.36;30.81;34.54;;
71016;Laerm;60940;52.046;5.340;2023-02-11T00:19:15;32.25;31.05;33.51;;
71016;Laerm;60940;52.046;5.340;2023-02-11T00:19:25;32.51;30.74;33.84;;
71016;Laerm;60940;52.046;5.340;2023-02-11T00:19:35;31.87;30.69;33.37;;
71016;Laerm;60940;52.046;5.340;2023-02-11T00:19:49;32.43;30.69;34.80;;
71016;Laerm;60940;52.046;5.340;2023-02-11T00:19:59;32.62;30.99;34.14;;
71016;Laerm;60940;52.046;5.340;2023-02-11T00:20:09;32.37;31.01;34.12;;
71016;Laerm;60940;52.046;5.340;2023-02-11T00:20:19;32.27;30.98;34.82;;
71016;Laerm;60940;52.046;5.340;2023-02-11T00:20:29;33.13;31.09;34.66;;
71016;Laerm;60940;52.046;5.340;2023-02-11T00:20:40;32.57;30.97;34.00;;
71016;Laerm;60940;52.046;5.340;2023-02-11T00:20:50;33.22;31.03;34.97;;
71016;Laerm;60940;52.046;5.340;2023-02-11T00:21:04;36.37;33.41;38.68;;
71016;Laerm;60940;52.046;5.340;2023-02-11T00:21:16;36.69;34.01;39.75;;
71016;Laerm;60940;52.046;5.340;2023-02-11T00:21:27;33.72;31.53;36.32;;
71016;Laerm;60940;52.046;5.340;2023-02-11T00:21:37;32.25;30.68;33.80;;
71016;Laerm;60940;52.046;5.340;2023-02-11T00:21:49;31.71;30.39;33.35;;
71016;Laerm;60940;52.046;5.340;2023-02-11T00:21:59;31.27;29.93;32.48;;
71016;Laerm;60940;52.046;5.340;2023-02-11T00:22:09;32.70;30.68;36.37;;
71016;Laerm;60940;52.046;5.340;2023-02-11T00:22:19;35.99;31.81;44.00;;
71016;Laerm;60940;52.046;5.340;2023-02-11T00:22:29;32.02;30.31;34.07;;
71016;Laerm;60940;52.046;5.340;2023-02-11T00:22:40;31.30;29.70;32.91;;
71016;Laerm;60940;52.046;5.340;2023-02-11T00:22:50;31.20;29.89;32.61;;
71016;Laerm;60940;52.046;5.340;2023-02-11T00:23:00;32.33;30.35;33.93;;
71016;Laerm;60940;52.046;5.340;2023-02-11T00:23:10;31.72;30.31;34.54;;
71016;Laerm;60940;52.046;5.340;2023-02-11T00:23:20;32.98;30.58;39.34;;
71016;Laerm;60940;52.046;5.340;2023-02-11T00:23:31;31.90;30.50;34.37;;
71016;Laerm;60940;52.046;5.340;2023-02-11T00:23:41;32.11;30.85;33.64;;
71016;Laerm;60940;52.046;5.340;2023-02-11T00:23:52;32.15;30.21;33.45;;
71016;Laerm;60940;52.046;5.340;2023-02-11T00:24:02;31.68;29.91;33.68;;
71016;Laerm;60940;52.046;5.340;2023-02-11T00:24:12;31.21;29.96;33.00;;
71016;Laerm;60940;52.046;5.340;2023-02-11T00:24:22;32.32;30.80;34.64;;
71016;Laerm;60940;52.046;5.340;2023-02-11T00:24:33;34.62;31.71;38.03;;
71016;Laerm;60940;52.046;5.340;2023-02-11T00:24:44;34.50;31.26;39.65;;
71016;Laerm;60940;52.046;5.340;2023-02-11T00:24:54;32.22;30.55;33.56;;
71016;Laerm;60940;52.046;5.340;2023-02-11T00:25:06;32.28;30.94;34.71;;
71016;Laerm;60940;52.046;5.340;2023-02-11T00:25:16;31.92;30.20;34.74;;
71016;Laerm;60940;52.046;5.340;2023-02-11T00:25:26;31.61;30.39;32.96;;
71016;Laerm;60940;52.046;5.340;2023-02-11T00:25:40;31.56;30.25;37.35;;
71016;Laerm;60940;52.046;5.340;2023-02-11T00:25:50;31.70;29.92;33.00;;
71016;Laerm;60940;52.046;5.340;2023-02-11T00:26:00;31.89;30.08;33.37;;
71016;Laerm;60940;52.046;5.340;2023-02-11T00:26:12;31.81;30.26;33.30;;
71016;Laerm;60940;52.046;5.340;2023-02-11T00:26:23;31.48;30.32;32.77;;
71016;Laerm;60940;52.046;5.340;2023-02-11T00:26:34;31.66;30.23;33.22;;
71016;Laerm;60940;52.046;5.340;2023-02-11T00:26:44;31.80;30.70;33.20;;
71016;Laerm;60940;52.046;5.340;2023-02-11T00:26:54;31.78;30.56;33.27;;
71016;Laerm;60940;52.046;5.340;2023-02-11T00:27:05;33.09;30.81;36.40;;
71016;Laerm;60940;52.046;5.340;2023-02-11T00:27:15;31.73;30.11;33.47;;
71016;Laerm;60940;52.046;5.340;2023-02-11T00:27:25;31.49;30.04;32.90;;
71016;Laerm;60940;52.046;5.340;2023-02-11T00:27:35;32.27;30.14;43.92;;
71016;Laerm;60940;52.046;5.340;2023-02-11T00:27:46;31.48;30.12;32.63;;
71016;Laerm;60940;52.046;5.340;2023-02-11T00:27:56;33.53;30.15;46.53;;
71016;Laerm;60940;52.046;5.340;2023-02-11T00:28:07;32.05;30.73;33.34;;
71016;Laerm;60940;52.046;5.340;2023-02-11T00:28:17;31.98;30.24;34.16;;
71016;Laerm;60940;52.046;5.340;2023-02-11T00:28:27;31.59;30.23;32.89;;
71016;Laerm;60940;52.046;5.340;2023-02-11T00:28:37;32.30;30.87;37.00;;
71016;Laerm;60940;52.046;5.340;2023-02-11T00:28:48;35.46;32.05;45.03;;
71016;Laerm;60940;52.046;5.340;2023-02-11T00:28:59;32.15;30.72;33.78;;
71016;Laerm;60940;52.046;5.340;2023-02-11T00:29:10;31.88;30.40;33.50;;
71016;Laerm;60940;52.046;5.340;2023-02-11T00:29:20;31.84;30.22;33.01;;
71016;Laerm;60940;52.046;5.340;2023-02-11T00:29:30;31.98;30.57;33.87;;
71016;Laerm;60940;52.046;5.340;2023-02-11T00:29:40;31.83;30.46;34.12;;
71016;Laerm;60940;52.046;5.340;2023-02-11T00:29:51;31.72;30.17;33.29;;
71016;Laerm;60940;52.046;5.340;2023-02-11T00:30:01;32.67;30.77;34.89;;
71016;Laerm;60940;52.046;5.340;2023-02-11T00:30:11;32.81;31.12;34.23;;
71016;Laerm;60940;52.046;5.340;2023-02-11T00:30:22;32.62;31.00;34.52;;
71016;Laerm;60940;52.046;5.340;2023-02-11T00:30:32;32.26;30.68;33.72;;
71016;Laerm;60940;52.046;5.340;2023-02-11T00:30:42;32.37;30.59;33.98;;
71016;Laerm;60940;52.046;5.340;2023-02-11T00:30:53;31.57;30.18;32.84;;
71016;Laerm;60940;52.046;5.340;2023-02-11T00:31:04;31.88;30.48;33.18;;
71016;Laerm;60940;52.046;5.340;2023-02-11T00:31:15;32.27;30.81;35.49;;
71016;Laerm;60940;52.046;5.340;2023-02-11T00:31:26;32.90;30.86;34.72;;
71016;Laerm;60940;52.046;5.340;2023-02-11T00:31:37;32.09;30.47;35.11;;
71016;Laerm;60940;52.046;5.340;2023-02-11T00:31:47;32.28;30.76;33.81;;
71016;Laerm;60940;52.046;5.340;2023-02-11T00:31:57;31.96;30.37;35.59;;
71016;Laerm;60940;52.046;5.340;2023-02-11T00:32:08;31.52;30.15;32.85;;
71016;Laerm;60940;52.046;5.340;2023-02-11T00:32:18;32.03;30.65;33.90;;
71016;Laerm;60940;52.046;5.340;2023-02-11T00:32:28;31.88;30.47;33.08;;
71016;Laerm;60940;52.046;5.340;2023-02-11T00:32:38;31.93;30.56;33.89;;
71016;Laerm;60940;52.046;5.340;2023-02-11T00:32:51;31.82;30.09;35.09;;
71016;Laerm;60940;52.046;5.340;2023-02-11T00:33:01;31.72;30.24;33.12;;
71016;Laerm;60940;52.046;5.340;2023-02-11T00:33:12;31.69;29.95;33.12;;
71016;Laerm;60940;52.046;5.340;2023-02-11T00:33:22;32.02;30.60;33.46;;
71016;Laerm;60940;52.046;5.340;2023-02-11T00:33:32;32.09;30.69;33.55;;
71016;Laerm;60940;52.046;5.340;2023-02-11T00:33:43;31.89;30.46;33.52;;
71016;Laerm;60940;52.046;5.340;2023-02-11T00:33:53;31.64;30.15;33.03;;
71016;Laerm;60940;52.046;5.340;2023-02-11T00:34:04;33.31;30.00;47.92;;
71016;Laerm;60940;52.046;5.340;2023-02-11T00:34:14;34.29;31.96;43.22;;
71016;Laerm;60940;52.046;5.340;2023-02-11T00:34:24;33.08;30.73;43.62;;
71016;Laerm;60940;52.046;5.340;2023-02-11T00:34:34;31.77;29.97;34.26;;
71016;Laerm;60940;52.046;5.340;2023-02-11T00:34:45;31.90;30.41;36.68;;
71016;Laerm;60940;52.046;5.340;2023-02-11T00:34:55;31.98;30.34;33.47;;
71016;Laerm;60940;52.046;5.340;2023-02-11T00:35:06;31.79;30.13;33.65;;
71016;Laerm;60940;52.046;5.340;2023-02-11T00:35:16;31.47;29.89;32.99;;
71016;Laerm;60940;52.046;5.340;2023-02-11T00:35:26;31.33;29.86;32.98;;
71016;Laerm;60940;52.046;5.340;2023-02-11T00:35:36;31.00;29.61;33.00;;
71016;Laerm;60940;52.046;5.340;2023-02-11T00:35:47;31.04;29.49;32.08;;
71016;Laerm;60940;52.046;5.340;2023-02-11T00:35:57;31.17;29.60;32.59;;
71016;Laerm;60940;52.046;5.340;2023-02-11T00:36:12;31.09;29.74;32.47;;
71016;Laerm;60940;52.046;5.340;2023-02-11T00:36:24;31.46;30.00;33.62;;
71016;Laerm;60940;52.046;5.340;2023-02-11T00:36:35;32.72;29.86;35.09;;
71016;Laerm;60940;52.046;5.340;2023-02-11T00:36:45;31.59;29.95;33.17;;
71016;Laerm;60940;52.046;5.340;2023-02-11T00:36:55;31.09;30.02;32.35;;
71016;Laerm;60940;52.046;5.340;2023-02-11T00:37:05;31.13;29.77;32.46;;
71016;Laerm;60940;52.046;5.340;2023-02-11T00:37:15;31.41;29.82;32.96;;
71016;Laerm;60940;52.046;5.340;2023-02-11T00:37:25;31.63;30.07;38.25;;
71016;Laerm;60940;52.046;5.340;2023-02-11T00:37:36;32.08;30.51;36.59;;
71016;Laerm;60940;52.046;5.340;2023-02-11T00:37:46;31.90;30.47;39.07;;
71016;Laerm;60940;52.046;5.340;2023-02-11T00:37:56;31.57;29.74;36.81;;
71016;Laerm;60940;52.046;5.340;2023-02-11T00:38:06;31.30;30.10;32.44;;
71016;Laerm;60940;52.046;5.340;2023-02-11T00:38:16;31.24;30.03;32.38;;
71016;Laerm;60940;52.046;5.340;2023-02-11T00:38:27;31.11;29.83;32.95;;
71016;Laerm;60940;52.046;5.340;2023-02-11T00:38:37;30.97;29.97;32.17;;
71016;Laerm;60940;52.046;5.340;2023-02-11T00:38:47;30.91;29.68;32.02;;
71016;Laerm;60940;52.046;5.340;2023-02-11T00:38:58;30.93;29.60;32.05;;
71016;Laerm;60940;52.046;5.340;2023-02-11T00:39:09;30.92;29.40;32.22;;
71016;Laerm;60940;52.046;5.340;2023-02-11T00:39:19;31.36;29.78;32.40;;
71016;Laerm;60940;52.046;5.340;2023-02-11T00:39:30;32.05;30.47;34.19;;
71016;Laerm;60940;52.046;5.340;2023-02-11T00:39:40;36.32;31.41;45.43;;
71016;Laerm;60940;52.046;5.340;2023-02-11T00:39:50;34.45;31.25;42.21;;
71016;Laerm;60940;52.046;5.340;2023-02-11T00:40:01;31.43;29.76;33.29;;
71016;Laerm;60940;52.046;5.340;2023-02-11T00:40:11;31.18;29.79;33.70;;
71016;Laerm;60940;52.046;5.340;2023-02-11T00:40:22;31.19;29.75;32.81;;
71016;Laerm;60940;52.046;5.340;2023-02-11T00:40:32;31.11;29.76;32.87;;
71016;Laerm;60940;52.046;5.340;2023-02-11T00:40:42;31.13;29.67;32.55;;
71016;Laerm;60940;52.046;5.340;2023-02-11T00:40:52;31.39;29.12;33.22;;
71016;Laerm;60940;52.046;5.340;2023-02-11T00:41:02;30.92;29.48;31.93;;
71016;Laerm;60940;52.046;5.340;2023-02-11T00:41:13;31.16;29.75;33.01;;
71016;Laerm;60940;52.046;5.340;2023-02-11T00:41:24;31.31;30.16;32.98;;
71016;Laerm;60940;52.046;5.340;2023-02-11T00:41:35;31.41;29.93;33.50;;
71016;Laerm;60940;52.046;5.340;2023-02-11T00:41:45;31.15;29.69;32.47;;
71016;Laerm;60940;52.046;5.340;2023-02-11T00:41:55;31.24;29.79;32.63;;
71016;Laerm;60940;52.046;5.340;2023-02-11T00:42:06;30.89;29.79;32.10;;
71016;Laerm;60940;52.046;5.340;2023-02-11T00:42:16;30.81;29.45;32.04;;
71016;Laerm;60940;52.046;5.340;2023-02-11T00:42:26;30.95;29.49;32.18;;
71016;Laerm;60940;52.046;5.340;2023-02-11T00:42:36;30.82;29.60;32.04;;
71016;Laerm;60940;52.046;5.340;2023-02-11T00:42:46;30.70;29.49;31.90;;
71016;Laerm;60940;52.046;5.340;2023-02-11T00:42:57;30.82;29.19;32.54;;
71016;Laerm;60940;52.046;5.340;2023-02-11T00:43:07;30.59;29.45;31.85;;
71016;Laerm;60940;52.046;5.340;2023-02-11T00:43:17;30.51;28.99;31.65;;
71016;Laerm;60940;52.046;5.340;2023-02-11T00:43:27;30.54;29.31;32.22;;
71016;Laerm;60940;52.046;5.340;2023-02-11T00:43:38;30.80;29.56;32.13;;
71016;Laerm;60940;52.046;5.340;2023-02-11T00:43:48;30.82;29.29;32.15;;
71016;Laerm;60940;52.046;5.340;2023-02-11T00:43:59;30.69;29.60;32.30;;
71016;Laerm;60940;52.046;5.340;2023-02-11T00:44:09;30.62;29.49;31.82;;
71016;Laerm;60940;52.046;5.340;2023-02-11T00:44:19;30.77;29.68;32.57;;
71016;Laerm;60940;52.046;5.340;2023-02-11T00:44:30;30.93;29.27;32.25;;
71016;Laerm;60940;52.046;5.340;2023-02-11T00:44:40;30.90;29.33;32.22;;
71016;Laerm;60940;52.046;5.340;2023-02-11T00:44:50;30.98;29.79;35.24;;
71016;Laerm;60940;52.046;5.340;2023-02-11T00:45:00;31.00;29.46;32.55;;
71016;Laerm;60940;52.046;5.340;2023-02-11T00:45:11;30.66;29.43;31.96;;
71016;Laerm;60940;52.046;5.340;2023-02-11T00:45:21;30.79;29.68;31.96;;
71016;Laerm;60940;52.046;5.340;2023-02-11T00:45:31;31.00;29.79;32.51;;
71016;Laerm;60940;52.046;5.340;2023-02-11T00:45:41;31.63;29.95;34.07;;
71016;Laerm;60940;52.046;5.340;2023-02-11T00:45:52;32.44;30.28;33.98;;
71016;Laerm;60940;52.046;5.340;2023-02-11T00:46:02;32.13;30.60;33.35;;
71016;Laerm;60940;52.046;5.340;2023-02-11T00:46:12;32.19;29.96;34.73;;
71016;Laerm;60940;52.046;5.340;2023-02-11T00:46:22;33.48;31.84;35.95;;
71016;Laerm;60940;52.046;5.340;2023-02-11T00:46:32;33.58;30.97;36.91;;
71016;Laerm;60940;52.046;5.340;2023-02-11T00:46:43;31.52;30.09;33.51;;
71016;Laerm;60940;52.046;5.340;2023-02-11T00:46:53;31.28;29.89;32.51;;
71016;Laerm;60940;52.046;5.340;2023-02-11T00:47:03;31.01;29.37;32.29;;
71016;Laerm;60940;52.046;5.340;2023-02-11T00:47:13;30.74;29.37;31.78;;
71016;Laerm;60940;52.046;5.340;2023-02-11T00:47:24;30.89;29.13;32.25;;
71016;Laerm;60940;52.046;5.340;2023-02-11T00:47:34;30.98;29.52;32.94;;
71016;Laerm;60940;52.046;5.340;2023-02-11T00:47:44;30.89;29.66;33.25;;
71016;Laerm;60940;52.046;5.340;2023-02-11T00:47:55;31.25;29.49;33.02;;
71016;Laerm;60940;52.046;5.340;2023-02-11T00:48:05;30.99;29.60;32.55;;
71016;Laerm;60940;52.046;5.340;2023-02-11T00:48:15;30.99;29.63;32.17;;
71016;Laerm;60940;52.046;5.340;2023-02-11T00:48:26;30.86;29.19;32.18;;
71016;Laerm;60940;52.046;5.340;2023-02-11T00:48:36;31.15;29.60;32.77;;
71016;Laerm;60940;52.046;5.340;2023-02-11T00:48:47;31.80;30.24;38.89;;
71016;Laerm;60940;52.046;5.340;2023-02-11T00:48:57;31.57;30.18;34.10;;
71016;Laerm;60940;52.046;5.340;2023-02-11T00:49:07;31.27;29.93;32.96;;
71016;Laerm;60940;52.046;5.340;2023-02-11T00:49:17;31.36;29.99;32.69;;
71016;Laerm;60940;52.046;5.340;2023-02-11T00:49:28;31.41;29.98;32.89;;
71016;Laerm;60940;52.046;5.340;2023-02-11T00:49:38;30.93;29.73;32.07;;
71016;Laerm;60940;52.046;5.340;2023-02-11T00:49:49;30.93;29.74;32.10;;
71016;Laerm;60940;52.046;5.340;2023-02-11T00:49:59;30.93;29.44;32.25;;
71016;Laerm;60940;52.046;5.340;2023-02-11T00:50:09;31.09;29.68;33.45;;
71016;Laerm;60940;52.046;5.340;2023-02-11T00:50:20;31.99;29.95;34.20;;
71016;Laerm;60940;52.046;5.340;2023-02-11T00:50:30;30.77;29.51;31.98;;
71016;Laerm;60940;52.046;5.340;2023-02-11T00:50:40;30.88;29.49;32.29;;
71016;Laerm;60940;52.046;5.340;2023-02-11T00:50:50;30.84;29.38;32.52;;
71016;Laerm;60940;52.046;5.340;2023-02-11T00:51:01;30.86;29.72;32.55;;
71016;Laerm;60940;52.046;5.340;2023-02-11T00:51:13;31.10;29.89;32.34;;
71016;Laerm;60940;52.046;5.340;2023-02-11T00:51:24;30.98;29.68;32.19;;
71016;Laerm;60940;52.046;5.340;2023-02-11T00:51:34;30.88;29.81;31.83;;
71016;Laerm;60940;52.046;5.340;2023-02-11T00:51:45;30.91;29.78;32.07;;
71016;Laerm;60940;52.046;5.340;2023-02-11T00:51:55;30.96;29.69;32.37;;
71016;Laerm;60940;52.046;5.340;2023-02-11T00:52:05;30.99;29.52;32.27;;
71016;Laerm;60940;52.046;5.340;2023-02-11T00:52:15;30.89;29.63;32.13;;
71016;Laerm;60940;52.046;5.340;2023-02-11T00:52:25;30.96;29.20;32.66;;
71016;Laerm;60940;52.046;5.340;2023-02-11T00:52:36;30.95;29.57;32.44;;
71016;Laerm;60940;52.046;5.340;2023-02-11T00:52:46;31.02;29.77;32.32;;
71016;Laerm;60940;52.046;5.340;2023-02-11T00:52:56;31.27;29.59;32.72;;
71016;Laerm;60940;52.046;5.340;2023-02-11T00:53:06;31.47;30.14;32.99;;
71016;Laerm;60940;52.046;5.340;2023-02-11T00:53:16;31.61;30.10;35.44;;
71016;Laerm;60940;52.046;5.340;2023-02-11T00:53:26;30.93;29.58;32.84;;
71016;Laerm;60940;52.046;5.340;2023-02-11T00:53:37;30.82;29.42;32.15;;
71016;Laerm;60940;52.046;5.340;2023-02-11T00:53:47;30.96;29.56;32.41;;
71016;Laerm;60940;52.046;5.340;2023-02-11T00:53:57;31.10;29.71;33.04;;
71016;Laerm;60940;52.046;5.340;2023-02-11T00:54:08;31.17;29.75;33.10;;
71016;Laerm;60940;52.046;5.340;2023-02-11T00:54:18;31.43;29.95;33.22;;
71016;Laerm;60940;52.046;5.340;2023-02-11T00:54:28;31.27;30.04;32.59;;
71016;Laerm;60940;52.046;5.340;2023-02-11T00:54:38;31.30;29.99;33.07;;
71016;Laerm;60940;52.046;5.340;2023-02-11T00:54:49;31.06;29.50;32.31;;
71016;Laerm;60940;52.046;5.340;2023-02-11T00:54:59;31.03;29.65;32.27;;
71016;Laerm;60940;52.046;5.340;2023-02-11T00:55:09;31.17;29.92;32.38;;
71016;Laerm;60940;52.046;5.340;2023-02-11T00:55:19;30.70;29.47;31.71;;
71016;Laerm;60940;52.046;5.340;2023-02-11T00:55:29;30.83;29.70;32.19;;
71016;Laerm;60940;52.046;5.340;2023-02-11T00:55:40;30.92;29.68;32.11;;
71016;Laerm;60940;52.046;5.340;2023-02-11T00:55:50;31.11;29.77;32.72;;
71016;Laerm;60940;52.046;5.340;2023-02-11T00:56:00;31.28;29.72;32.48;;
71016;Laerm;60940;52.046;5.340;2023-02-11T00:56:10;31.17;29.59;34.36;;
71016;Laerm;60940;52.046;5.340;2023-02-11T00:56:21;30.86;29.50;32.16;;
71016;Laerm;60940;52.046;5.340;2023-02-11T00:56:31;30.88;29.68;32.42;;
71016;Laerm;60940;52.046;5.340;2023-02-11T00:56:41;30.91;29.60;32.29;;
71016;Laerm;60940;52.046;5.340;2023-02-11T00:56:51;30.93;29.73;33.00;;
71016;Laerm;60940;52.046;5.340;2023-02-11T00:57:01;30.81;29.68;32.04;;
71016;Laerm;60940;52.046;5.340;2023-02-11T00:57:12;30.95;29.79;32.47;;
71016;Laerm;60940;52.046;5.340;2023-02-11T00:57:22;30.71;29.44;31.97;;
71016;Laerm;60940;52.046;5.340;2023-02-11T00:57:32;30.82;29.25;31.91;;
71016;Laerm;60940;52.046;5.340;2023-02-11T00:57:42;31.22;29.92;32.70;;
71016;Laerm;60940;52.046;5.340;2023-02-11T00:57:53;30.85;29.69;32.23;;
71016;Laerm;60940;52.046;5.340;2023-02-11T00:58:03;30.88;29.63;32.18;;
71016;Laerm;60940;52.046;5.340;2023-02-11T00:58:13;31.02;29.71;32.21;;
71016;Laerm;60940;52.046;5.340;2023-02-11T00:58:23;31.13;29.98;32.44;;
71016;Laerm;60940;52.046;5.340;2023-02-11T00:58:34;31.02;29.91;32.36;;
71016;Laerm;60940;52.046;5.340;2023-02-11T00:58:44;31.14;29.51;32.98;;
71016;Laerm;60940;52.046;5.340;2023-02-11T00:58:54;31.77;30.18;33.11;;